Terminal Aerodrome Forecast
Issued by NWS Knoxville/Tri Cities, TN

Home | Current Version | Previous Version | Text Only | Print | Product List | Glossary On
Versions: 1 2 3 4 5 6 7 8 9 10 11 12 13 14 15 16 17 18 19 20 21 22 23 24 25 26 27 28
000
FTUS44 KMRX 050520
TAFTYS
TAF
KTYS 050520Z 0506/0606 05004KT P6SM FEW050 SCT250
     FM051000 00000KT 5SM BR SKC
     FM051400 05006KT P6SM SCT035 SCT250
     FM060000 21004KT P6SM FEW250=

USA.gov is the U.S. government's official web portal to all federal, state and local government web resources and services.